x

Buoy E01 - Central Maine Shelf (44032) Wave Buoy

8:04 - Wed 28th Sep 2016 All times are EDT. -4 hours from GMT.

  • Sig Wave height 5.2ft
  • Peak Period 5s
  • Wind
    22mph, 27mph gusts
  • Sea Temp 57°f
  • Ar Temp 57°f
  • Sea Pressure 1027.2mb
  • Buoy E01 - Central Maine Shelf
  • Buoy E01 - Central Maine Shelf

More Historic Weather Station data

Upgrade to MSW Pro to gain access to the past 30 days of data for over 8000 Wavebouys and Weather Stations around the globe.

Join Pro

Comparision Forecast

View Surf forecast
   
Qua 09/28 8:04 5ft 5s 22 27 mph 1027.2mb 57f 57f
7:04 5ft 6s 20 25 mph 1026.6mb 58f 57f
6:04 4ft 6s 18 22 mph 1026.5mb 58f 57f
5:04 3.5ft 5s 20 25 mph 1025.9mb 58f 57f
4:04 4ft 8s 16 18 mph 1025.6mb 58f 57f
3:04 3.5ft 5s 13 16 mph 1025.5mb 58f 57f
2:04 4ft 5s 16 18 mph 1025.4mb 58f 56f
1:04 4.5ft 6s 18 22 mph 1025.4mb 58f 55f
12:04 5ft 5s 18 20 mph 1025.2mb 58f 55f
11:04 4.5ft 5s 20 27 mph 1025.4mb 58f 54f
10:04 4.5ft 6s 20 25 mph 1025.1mb 57f 53f
9:04 4.5ft 8s 20 25 mph 1024.3mb 57f 53f
8:04 4.5ft 5s 20 27 mph 1023.7mb 57f 53f
7:04 5ft 8s 18 22 mph 1022.9mb 57f 54f
6:04 4.5ft 8s 18 20 mph 1022mb 57f 54f
5:04 5ft 8s 16 20 mph 1021.5mb 57f 54f
4:04 5ft 8s 18 22 mph 1020.6mb 57f 55f
3:04 5ft 8s 18 22 mph 1019.9mb 57f 56f
2:04 5ft 8s 18 22 mph 1019.5mb 57f 56f
1:04 4ft 6s 20 25 mph 1018.9mb 57f 56f
12:04 3.5ft 6s 20 25 mph 1018.2mb 57f 56f
Ter 09/27 11:04 3.5ft 6s 18 20 mph 1017.4mb 57f 57f
10:04 3.5ft 6s 13 16 mph 1016.5mb 57f 58f
9:04 3.5ft 6s 9 11 mph 1015.7mb 57f 58f
8:04 4ft 6s 7 9 mph 1014.6mb 57f 58f
7:04 3.5ft 5s 4 7 mph 1013.8mb 58f 58f
6:04 2.5ft 5s 4 7 mph 1013.4mb 58f 59f
5:04 2.5ft 5s 4
mph
1013mb 58f 60f
4:04 2.5ft 5s 4
mph
1012mb 58f 60f
3:04 2.5ft 5s 4
mph
1011.4mb 58f 60f
2:04 3.5ft 6s 2
mph
1011.4mb 58f 59f
1:04 3ft 6s 2 4 mph 1011.5mb 58f 59f
12:04 3.5ft 6s 4
mph
1011.5mb 58f 58f
11:04 3.5ft 6s 7 9 mph 1012.2mb 58f 58f
10:04 3.5ft 5s 2 4 mph 1011.9mb 58f 58f
9:04 4ft 6s 7 9 mph 1012.3mb 58f 58f
8:04 4.5ft 5s 13 16 mph 1012.2mb 58f 59f
7:04 5ft 5s 16 20 mph 1012.4mb 58f 58f
6:04 4.5ft 5s 20 25 mph 1012.2mb 58f 60f
5:04 4.5ft 5s 18 20 mph 1012.5mb 58f 60f
4:04 4ft 5s 18 22 mph 1013mb 58f 60f
3:04 3.5ft 5s 16 18 mph 1013.6mb 58f 59f
2:04 3ft 5s 13 16 mph 1014.8mb 58f 59f
1:04 3ft 5s 16 18 mph 1015.3mb 58f 60f
12:04 3ft 5s 11 13 mph 1016.1mb 58f 58f
Seg 09/26 11:04 3ft 4s 16 20 mph 1016.5mb 58f 58f
10:04 2ft 3s 16 18 mph 1017.1mb 58f 58f
9:04 1.6ft 3s 13 16 mph 1017.4mb 58f 57f
8:04 1.6ft 3s 13 16 mph 1017.7mb 58f 57f
7:04 1.6ft 3s 11 13 mph 1018mb 58f 57f
6:04 1.6ft 3s 13 16 mph 1018.3mb 58f 56f
5:04 1.6ft 3s 16 18 mph 1018.5mb 58f 56f
4:04 1.3ft 3s 16 18 mph 1019.1mb 58f 56f
3:04 1ft 2s 13 16 mph 1019.5mb 59f 56f
2:04 1ft 11s 9 13 mph 1020mb 59f 55f
1:04 1ft 11s 7 9 mph 1020.8mb 59f 55f
12:04 0.7ft  -  4
mph
1021.6mb 58f 55f
11:04 0.7ft  -  7 9 mph 1021.8mb 58f 54f
10:04 1ft 3s 9 11 mph 1022mb 58f 53f
9:04 1.3ft 3s 11
mph
1021.7mb 58f 52f
8:04 1.6ft 3s 11 13 mph 1021.8mb 58f 52f
7:04 1.6ft 3s 13 16 mph 1021.9mb 58f 52f
6:04 1.6ft 3s 16 18 mph 1021.2mb 58f 52f
5:04 2ft 3s 16 18 mph 1020.6mb 58f 53f
4:04 1.6ft 3s 16 18 mph 1020.9mb 58f 53f
3:04 2ft 3s 16 18 mph 1021mb 58f 53f
2:04 2ft 3s 18 20 mph 1021.1mb 58f 53f
1:04 1.6ft 3s 18 20 mph 1020.9mb 58f 54f
12:04 1.6ft 3s 16 20 mph 1020.8mb 58f 54f
Dom 09/25 11:04 2ft 3s 16 18 mph 1020.6mb 58f 55f
10:04 2ft 3s 16 20 mph 1020.4mb 58f 55f
9:04 2.5ft 3s 18 20 mph 1019.9mb 58f 56f
8:04 2.5ft 3s 18 20 mph 1019.3mb 58f 57f
7:04 2.5ft 3s 16 20 mph 1018.7mb 58f 58f
6:04 2.5ft 3s 16 20 mph 1017.6mb 58f 58f
5:04 2.5ft 3s 16 20 mph 1016.9mb 58f 58f
4:04 2ft 3s 18 22 mph 1016.6mb 58f 58f
3:04 2.5ft 3s 16 20 mph 1016.6mb 58f 58f
2:04 2.5ft 3s 16 20 mph 1016.6mb 58f 57f
1:04 2ft 3s 13 18 mph 1017.3mb 58f 57f
12:04 3ft 4s 16 18 mph 1017.2mb 58f 55f
11:04 3.5ft 5s 16 20 mph 1017.6mb 58f 54f
10:04 3ft 5s 18 22 mph 1017.4mb 58f 53f
9:04 2.5ft 3s 16 20 mph 1017.5mb 58f 52f
8:04 3ft 4s 20 22 mph 1017.4mb 57f 51f
7:04 3ft 4s 22 27 mph 1017.2mb 57f 51f
6:04 3.5ft 4s 22 27 mph 1017.1mb 57f 52f
5:04 2ft 3s 18 22 mph 1017.1mb 57f 51f
4:04 2ft 3s 20 25 mph 1017.2mb 58f 52f
3:04 1.6ft 3s 16 20 mph 1017.3mb 58f 52f
2:04 2.5ft 4s 18 20 mph 1017.4mb 58f 52f